KADW/ADW METAR and TAF weather

Enter ICAO airport designator
Station Type Date Time Source
KADW METAR 2019/02/20 07:56 UTC NOAA

KADW 200756Z AUTO 08006KT 10SM BKN100 01/M07 A3055 RMK AO2 SLP355 T00061067 $


Station Type Date Time Source
KADW Decoded METAR 2019/02/20 07:56 UTC NOAA

Camp Springs / Andrews Air Force Base, MD, United States (KADW) 38-49N 076-51W 88M
Feb 20, 2019 - 02:56 AM EST / 2019.02.20 0756 UTC
Wind: from the E (080 degrees) at 7 MPH (6 KT):0
Visibility: 10 mile(s):0
Sky conditions: mostly cloudy
Temperature: 33.1 F (0.6 C)
Windchill: 26 F (-3 C):1
Dew Point: 19.9 F (-6.7 C)
Relative Humidity: 58%
Pressure (altimeter): 30.55 in. Hg (1034 hPa)
ob: KADW 200756Z AUTO 08006KT 10SM BKN100 01/M07 A3055 RMK AO2 SLP355 T00061067
cycle: 8

Station Type Date Time Source
KADW TAF 2019/02/20 01:18 UTC NOAA

TAF TAF KADW 200100Z 2001/2107 04009KT 9999 FEW150 SCT200 QNH3050INS
BECMG 2011/2012 10009KT 6000 -SN BKN020 OVC035 620209 QNH3032INS
BECMG 2018/2019 08012G18KT 4800 -RASN OVC007 620074 QNH3021INS
TEMPO 2019/2022 3200 -FZRA OVC005 690002 620402
BECMG 2021/2022 05009KT 3200 -RA OVC005 QNH2994INS WND 25006KT AFT 2105 TX03/2001Z TNM02/2010Z


Example: see airport list